Time;durP1;ratioP1;P1;durP2;ratioP2;P2;SDS_P1;SDS_P2;PMS_P1;PMS_P2;Temp;Humidity;BMP_temperature;BMP_pressure;BME280_temperature;BME280_humidity;BME280_pressure;Samples;Min_cycle;Max_cycle;Signal;HPM_P1;HPM_P2
2023/01/10 00:01:31;;;;;;;22.00;14.20;;;7.50;99.90;;;;;;4921022;28;20489;-80
2023/01/10 00:03:57;;;;;;;19.73;14.07;;;7.60;99.90;;;;;;4923089;29;20051;-80
2023/01/10 00:06:23;;;;;;;17.33;13.97;;;7.60;99.90;;;;;;4936366;29;20047;-80
2023/01/10 00:08:49;;;;;;;20.40;13.70;;;7.60;99.90;;;;;;4923450;29;20031;-80
2023/01/10 00:14:00;;;;;;;20.60;14.10;;;7.70;99.90;;;;;;4944412;29;20046;-80
2023/01/10 00:16:26;;;;;;;18.30;14.43;;;7.80;99.90;;;;;;4920354;29;20036;-80
2023/01/10 00:18:52;;;;;;;23.97;14.00;;;7.80;99.90;;;;;;4937520;29;20386;-80
2023/01/10 00:21:18;;;;;;;17.77;14.00;;;7.80;99.90;;;;;;4938208;29;20028;-80
2023/01/10 00:23:44;;;;;;;20.70;13.57;;;7.70;99.90;;;;;;4937408;29;20454;-80
2023/01/10 00:26:10;;;;;;;20.50;13.77;;;7.70;99.90;;;;;;4909158;29;20504;-80
2023/01/10 00:28:38;;;;;;;19.57;14.80;;;7.60;99.90;;;;;;4936704;29;20039;-80
2023/01/10 00:31:05;;;;;;;24.77;13.97;;;7.60;99.90;;;;;;4936418;28;20032;-80
2023/01/10 00:33:32;;;;;;;19.70;13.70;;;7.60;99.90;;;;;;4920172;29;20043;-80
2023/01/10 00:36:04;;;;;;;16.70;14.00;;;7.60;99.90;;;;;;4942727;29;20043;-80
2023/01/10 00:38:32;;;;;;;18.67;14.13;;;7.70;99.90;;;;;;4920725;29;20051;-80
2023/01/10 00:40:58;;;;;;;27.40;15.60;;;7.70;99.90;;;;;;4919799;29;20066;-80
2023/01/10 00:46:09;;;;;;;20.30;14.50;;;7.90;99.90;;;;;;4953153;28;20499;-80
2023/01/10 00:48:35;;;;;;;22.30;14.00;;;8.00;99.90;;;;;;4916915;29;20043;-80
2023/01/10 00:51:01;;;;;;;22.47;14.53;;;7.90;99.90;;;;;;4919502;29;20526;-80
2023/01/10 00:53:28;;;;;;;16.90;14.07;;;7.80;99.90;;;;;;4901641;29;20036;-80
2023/01/10 00:55:54;;;;;;;24.30;14.57;;;7.80;99.90;;;;;;4900830;29;20029;-80
2023/01/10 00:58:20;;;;;;;21.97;14.27;;;7.80;99.90;;;;;;4901276;29;20032;-80
2023/01/10 01:00:48;;;;;;;20.33;13.87;;;7.90;99.90;;;;;;4925401;28;20508;-80
2023/01/10 01:03:15;;;;;;;22.70;14.97;;;7.80;99.90;;;;;;4920633;29;20028;-80
2023/01/10 01:05:42;;;;;;;21.70;13.50;;;7.90;99.90;;;;;;4920527;29;20031;-80
2023/01/10 01:08:09;;;;;;;17.65;13.38;;;7.90;99.90;;;;;;4920241;29;20224;-80
2023/01/10 01:10:35;;;;;;;23.57;14.00;;;7.90;99.90;;;;;;4918014;29;20044;-80
2023/01/10 01:13:16;;;;;;;23.27;14.43;;;8.00;99.90;;;;;;4937034;29;20032;-80
2023/01/10 01:15:42;;;;;;;23.23;15.02;;;8.00;99.90;;;;;;4899431;29;20405;-80
2023/01/10 01:18:12;;;;;;;17.90;15.10;;;8.00;99.90;;;;;;4922491;29;20524;-80
2023/01/10 01:20:39;;;;;;;24.33;15.23;;;7.90;99.90;;;;;;4910078;29;20050;-80
2023/01/10 01:23:05;;;;;;;19.60;16.85;;;7.90;99.90;;;;;;4919626;29;20036;-80
2023/01/10 01:25:31;;;;;;;25.00;17.00;;;7.90;99.90;;;;;;4933521;29;20035;-80
2023/01/10 01:27:57;;;;;;;22.63;16.43;;;7.80;99.90;;;;;;4919437;29;20480;-80
2023/01/10 01:30:23;;;;;;;22.38;16.48;;;7.90;99.90;;;;;;4919115;28;20046;-80
2023/01/10 01:32:49;;;;;;;22.87;17.57;;;7.80;99.90;;;;;;4919893;29;20354;-80
2023/01/10 01:35:16;;;;;;;22.17;16.67;;;7.80;99.90;;;;;;4919987;29;20031;-80
2023/01/10 01:37:42;;;;;;;19.00;17.07;;;7.90;99.90;;;;;;4936738;29;20032;-80
2023/01/10 01:40:19;;;;;;;21.90;17.98;;;8.00;99.90;;;;;;4915736;29;20048;-80
2023/01/10 01:42:45;;;;;;;22.23;19.88;;;8.00;99.90;;;;;;4914873;29;20048;-80
2023/01/10 01:45:13;;;;;;;25.05;19.13;;;7.90;99.90;;;;;;4912504;28;20029;-80
2023/01/10 01:47:51;;;;;;;31.15;19.10;;;8.00;99.90;;;;;;4934560;29;20488;-80
2023/01/10 01:50:24;;;;;;;22.70;19.50;;;8.00;99.90;;;;;;4919556;29;20038;-80
2023/01/10 01:52:50;;;;;;;25.27;20.23;;;8.00;99.90;;;;;;4919686;29;20039;-80
2023/01/10 01:55:17;;;;;;;23.85;19.83;;;8.00;99.90;;;;;;4953948;29;20032;-80
2023/01/10 01:57:44;;;;;;;19.83;17.55;;;8.10;99.90;;;;;;4954447;29;20027;-80
2023/01/10 02:00:10;;;;;;;26.13;18.80;;;8.10;99.90;;;;;;4947980;28;20039;-80
2023/01/10 02:02:39;;;;;;;19.58;17.65;;;8.10;99.90;;;;;;4933889;29;20035;-80
2023/01/10 02:05:07;;;;;;;19.33;17.38;;;8.10;99.90;;;;;;4919213;29;20408;-80
2023/01/10 02:07:39;;;;;;;19.80;16.15;;;8.10;99.90;;;;;;4919429;29;20032;-80
2023/01/10 02:10:09;;;;;;;;;;;8.20;99.90;;;;;;4928613;29;20039;-80
2023/01/10 02:12:35;;;;;;;30.55;16.00;;;8.20;99.90;;;;;;4918341;29;19907;-80
2023/01/10 02:15:01;;;;;;;20.23;17.08;;;8.30;99.90;;;;;;4934199;29;20031;-80
2023/01/10 02:17:27;;;;;;;18.42;16.52;;;8.30;99.90;;;;;;4934192;28;20042;-80
2023/01/10 02:19:55;;;;;;;19.63;17.52;;;8.30;99.90;;;;;;4918111;29;20044;-80
2023/01/10 02:22:52;;;;;;;25.88;18.45;;;8.40;99.90;;;;;;4934881;29;20028;-80
2023/01/10 02:25:27;;;;;;;25.88;17.35;;;8.40;99.90;;;;;;4935080;29;20381;-80
2023/01/10 02:28:02;;;;;;;24.40;17.48;;;8.40;99.90;;;;;;4935985;29;20042;-80
2023/01/10 02:30:57;;;;;;;19.55;16.42;;;8.40;99.90;;;;;;4947208;28;20046;-80
2023/01/10 02:33:32;;;;;;;25.10;18.30;;;8.50;99.90;;;;;;4918862;29;20362;-80
2023/01/10 02:36:07;;;;;;;18.40;16.40;;;8.50;99.90;;;;;;4917382;29;20405;-80
2023/01/10 02:38:45;;;;;;;18.63;16.23;;;8.60;99.90;;;;;;4943597;29;20393;-80
2023/01/10 02:41:21;;;;;;;24.58;15.95;;;8.70;99.90;;;;;;4918318;29;20043;-80
2023/01/10 02:43:52;;;;;;;24.55;15.23;;;8.70;99.90;;;;;;4918341;29;20032;-80
2023/01/10 02:46:23;;;;;;;22.02;15.48;;;8.60;99.90;;;;;;4915808;29;20504;-80
2023/01/10 02:48:53;;;;;;;27.20;17.42;;;8.60;99.90;;;;;;4915451;29;20028;-80
2023/01/10 02:51:25;;;;;;;22.85;17.25;;;8.60;99.90;;;;;;4915401;29;20043;-80
2023/01/10 02:53:57;;;;;;;25.75;15.77;;;8.50;99.90;;;;;;4900765;29;20494;-80
2023/01/10 02:56:32;;;;;;;25.80;15.25;;;8.70;99.90;;;;;;4913491;29;20528;-80
2023/01/10 02:59:40;;;;;;;18.45;14.30;;;8.70;99.90;;;;;;4934726;29;20050;-80
2023/01/10 03:02:13;;;;;;;25.45;14.90;;;8.70;99.90;;;;;;4872997;29;20379;-80
2023/01/10 03:05:14;;;;;;;19.67;14.13;;;8.70;99.90;;;;;;4882557;29;20043;-80
2023/01/10 03:07:50;;;;;;;22.80;14.13;;;8.70;99.90;;;;;;4877754;29;20048;-81
2023/01/10 03:10:27;;;;;;;25.70;14.30;;;8.70;99.90;;;;;;4877139;29;20028;-81
2023/01/10 03:13:03;;;;;;;22.13;13.63;;;8.70;99.90;;;;;;4877743;29;20065;-81
2023/01/10 03:15:31;;;;;;;19.40;13.85;;;8.70;99.90;;;;;;4876058;29;20490;-80
2023/01/10 03:17:59;;;;;;;17.23;14.43;;;8.60;99.90;;;;;;4877660;29;20041;-81
2023/01/10 03:20:25;;;;;;;18.52;14.40;;;8.50;99.90;;;;;;4877744;29;20069;-81
2023/01/10 03:22:51;;;;;;;22.23;16.15;;;8.50;99.90;;;;;;4875901;29;20383;-80
2023/01/10 03:25:19;;;;;;;24.88;15.25;;;8.50;99.90;;;;;;4877343;29;20056;-80
2023/01/10 03:27:57;;;;;;;23.20;14.65;;;8.40;99.90;;;;;;4877843;29;20470;-80
2023/01/10 03:30:25;;;;;;;18.02;14.90;;;8.40;99.90;;;;;;4877790;29;20040;-81
2023/01/10 03:32:51;;;;;;;22.70;15.15;;;8.40;99.90;;;;;;4881617;29;20486;-80
2023/01/10 03:35:17;;;;;;;24.52;14.55;;;8.50;99.90;;;;;;4881416;29;20033;-81
2023/01/10 03:37:56;;;;;;;24.88;14.90;;;8.50;99.90;;;;;;4890814;29;20051;-80
2023/01/10 03:40:31;;;;;;;20.90;14.68;;;8.50;99.90;;;;;;4953535;29;20040;-80
2023/01/10 03:45:57;;;;;;;19.08;14.30;;;8.50;99.90;;;;;;4923759;29;20405;-80
2023/01/10 03:48:23;;;;;;;22.73;14.75;;;8.60;99.90;;;;;;4921350;29;20028;-80
2023/01/10 03:50:49;;;;;;;28.67;14.75;;;8.60;99.90;;;;;;4905162;29;20040;-80
2023/01/10 03:53:15;;;;;;;20.15;14.20;;;8.70;99.90;;;;;;4952467;29;20040;-80
2023/01/10 03:55:42;;;;;;;24.90;14.93;;;8.70;99.90;;;;;;4940792;29;20030;-81
2023/01/10 03:58:08;;;;;;;21.05;15.43;;;8.70;99.90;;;;;;4956576;29;20035;-80
2023/01/10 04:00:34;;;;;;;29.65;15.10;;;8.70;99.90;;;;;;4957087;28;20043;-80
2023/01/10 04:03:00;;;;;;;28.48;15.60;;;8.70;99.90;;;;;;4925221;29;20043;-81
2023/01/10 04:05:26;;;;;;;26.23;15.07;;;8.70;99.90;;;;;;4917574;29;20044;-81
2023/01/10 04:07:52;;;;;;;24.75;14.65;;;8.60;99.90;;;;;;4925863;29;20040;-80
2023/01/10 04:10:19;;;;;;;22.17;14.43;;;8.60;99.90;;;;;;4932950;29;20047;-80
2023/01/10 04:12:46;;;;;;;23.42;14.95;;;8.60;99.90;;;;;;4936668;29;20032;-80
2023/01/10 04:15:12;;;;;;;27.80;15.82;;;8.60;99.90;;;;;;4937638;28;20032;-80
2023/01/10 04:17:38;;;;;;;25.60;16.17;;;8.60;99.90;;;;;;4937527;29;20038;-80
2023/01/10 04:20:04;;;;;;;22.83;16.70;;;8.70;99.90;;;;;;4920266;29;20047;-80
2023/01/10 04:22:30;;;;;;;23.80;17.33;;;8.70;99.90;;;;;;4930901;29;20394;-80
2023/01/10 04:24:56;;;;;;;27.17;17.65;;;8.70;99.90;;;;;;4917685;29;20043;-80
2023/01/10 04:27:23;;;;;;;26.60;17.00;;;8.80;99.90;;;;;;4918785;29;20382;-80
2023/01/10 04:29:49;;;;;;;23.17;16.00;;;8.80;99.90;;;;;;4920370;29;20051;-80
2023/01/10 04:32:15;;;;;;;25.75;17.08;;;8.80;99.90;;;;;;4936528;28;20031;-80
2023/01/10 04:34:41;;;;;;;29.58;16.55;;;8.80;99.90;;;;;;4919862;29;20027;-80
2023/01/10 04:37:07;;;;;;;25.73;16.42;;;8.90;99.90;;;;;;4949737;28;20031;-80
2023/01/10 04:39:33;;;;;;;23.30;16.17;;;8.90;99.90;;;;;;4956534;29;20050;-80
2023/01/10 04:41:59;;;;;;;24.48;15.40;;;8.90;99.90;;;;;;4944711;29;20060;-80
2023/01/10 04:44:25;;;;;;;25.50;16.45;;;9.10;99.90;;;;;;4902547;29;20371;-80
2023/01/10 04:46:51;;;;;;;29.13;14.95;;;9.10;99.90;;;;;;4918126;28;20044;-80
2023/01/10 04:49:18;;;;;;;30.30;15.15;;;9.20;99.90;;;;;;4901377;29;20393;-80
2023/01/10 04:51:44;;;;;;;27.23;14.65;;;9.20;99.90;;;;;;4929673;29;20032;-80
2023/01/10 04:54:10;;;;;;;51.50;16.08;;;9.20;99.90;;;;;;4937623;29;20046;-80
2023/01/10 04:56:36;;;;;;;27.52;14.50;;;9.20;99.90;;;;;;4937429;29;20035;-80
2023/01/10 04:59:05;;;;;;;20.00;15.45;;;9.20;99.90;;;;;;4932457;29;20032;-80
2023/01/10 05:01:31;;;;;;;29.33;16.42;;;9.30;99.90;;;;;;4918041;28;20039;-80
2023/01/10 05:03:57;;;;;;;21.52;14.05;;;9.30;99.90;;;;;;4931592;29;20040;-80
2023/01/10 05:06:24;;;;;;;18.27;14.38;;;9.30;99.90;;;;;;4932346;29;20419;-80
2023/01/10 05:08:50;;;;;;;29.13;14.57;;;9.30;99.90;;;;;;4932818;29;20473;-80
2023/01/10 05:11:16;;;;;;;19.23;14.43;;;9.20;99.90;;;;;;4935423;29;20031;-80
2023/01/10 05:13:42;;;;;;;34.90;16.30;;;9.10;99.90;;;;;;4937345;29;20362;-80
2023/01/10 05:16:08;;;;;;;76.78;18.83;;;9.10;99.90;;;;;;4936792;28;20032;-80
2023/01/10 05:18:34;;;;;;;19.95;16.70;;;9.10;99.90;;;;;;4936034;29;20425;-80
2023/01/10 05:21:08;;;;;;;1112.65;77.47;;;9.10;99.90;;;;;;4914997;29;20035;-80
2023/01/10 05:23:35;;;;;;;41.90;18.77;;;9.10;99.90;;;;;;4951793;29;20032;-81
2023/01/10 05:26:21;;;;;;;22.35;17.65;;;9.20;99.90;;;;;;4929454;29;20496;-81
2023/01/10 05:28:47;;;;;;;20.60;16.70;;;9.10;99.90;;;;;;4885003;29;20051;-80
2023/01/10 05:31:15;;;;;;;30.90;16.98;;;9.10;99.90;;;;;;4917577;29;20044;-80
2023/01/10 05:33:49;;;;;;;28.65;18.15;;;9.00;99.90;;;;;;4900789;29;20035;-80
2023/01/10 05:36:16;;;;;;;31.30;18.65;;;8.90;99.90;;;;;;4915891;29;20047;-80
2023/01/10 05:38:42;;;;;;;26.55;18.45;;;8.80;99.90;;;;;;4918959;29;20389;-80
2023/01/10 05:41:08;;;;;;;26.48;18.05;;;8.80;99.90;;;;;;4938868;29;20047;-80
2023/01/10 05:43:34;;;;;;;27.02;19.02;;;8.80;99.90;;;;;;4920819;29;20043;-80
2023/01/10 05:46:00;;;;;;;30.70;19.25;;;8.70;99.90;;;;;;4917063;28;20048;-81
2023/01/10 05:48:26;;;;;;;23.25;19.73;;;8.70;99.90;;;;;;4932357;29;20025;-80
2023/01/10 05:50:53;;;;;;;27.02;18.65;;;8.70;99.90;;;;;;4929979;29;20062;-81
2023/01/10 05:53:19;;;;;;;29.35;19.58;;;8.60;99.90;;;;;;4922543;29;20032;-81
2023/01/10 05:56:11;;;;;;;29.90;19.50;;;8.60;99.90;;;;;;4898568;29;20052;-80
2023/01/10 05:58:37;;;;;;;27.13;20.10;;;8.60;99.90;;;;;;4915822;29;20043;-80
2023/01/10 06:01:03;;;;;;;24.17;20.52;;;8.60;99.90;;;;;;4902682;29;20055;-80
2023/01/10 06:03:29;;;;;;;32.22;20.55;;;8.60;99.90;;;;;;4934391;29;20035;-81
2023/01/10 06:05:56;;;;;;;29.63;20.67;;;8.70;99.90;;;;;;4903400;29;20055;-79
2023/01/10 06:08:22;;;;;;;33.20;20.88;;;8.70;99.90;;;;;;4933124;29;20028;-80
2023/01/10 06:10:48;;;;;;;27.52;21.17;;;8.70;99.90;;;;;;4919133;29;20032;-80
2023/01/10 06:13:14;;;;;;;28.85;21.08;;;8.70;99.90;;;;;;4887171;29;20036;-80
2023/01/10 06:15:40;;;;;;;25.85;20.80;;;8.70;99.90;;;;;;4933699;28;20035;-80
2023/01/10 06:18:07;;;;;;;29.23;21.65;;;8.70;99.90;;;;;;4929923;29;20043;-80
2023/01/10 06:20:34;;;;;;;27.35;23.05;;;8.70;99.90;;;;;;4930416;29;20389;-80
2023/01/10 06:23:03;;;;;;;33.25;23.65;;;8.70;99.90;;;;;;4935983;29;20031;-80
2023/01/10 06:25:30;;;;;;;28.38;22.67;;;8.70;99.90;;;;;;4918456;29;20043;-80
2023/01/10 06:27:57;;;;;;;34.92;25.63;;;8.70;99.90;;;;;;4904869;29;20044;-80
2023/01/10 06:30:23;;;;;;;26.42;23.52;;;8.70;99.90;;;;;;4898790;29;20059;-80
2023/01/10 06:32:49;;;;;;;32.08;24.73;;;8.70;99.90;;;;;;4901823;29;20043;-80
2023/01/10 06:35:16;;;;;;;38.95;23.70;;;8.80;99.90;;;;;;4917583;29;20040;-80
2023/01/10 06:37:43;;;;;;;27.67;23.45;;;8.80;99.90;;;;;;4917533;29;20023;-80
2023/01/10 06:40:10;;;;;;;29.42;21.52;;;8.80;99.90;;;;;;4934528;29;20043;-80
2023/01/10 06:42:36;;;;;;;25.35;22.30;;;8.80;99.90;;;;;;4926230;29;20055;-80
2023/01/10 06:45:03;;;;;;;27.67;21.98;;;8.80;99.90;;;;;;4915135;29;20043;-81
2023/01/10 06:47:29;;;;;;;27.88;19.83;;;8.80;99.90;;;;;;4925126;29;20381;-80
2023/01/10 06:49:55;;;;;;;27.25;21.75;;;8.80;99.90;;;;;;4933024;29;20039;-80
2023/01/10 06:52:21;;;;;;;33.15;21.10;;;8.80;99.90;;;;;;4933960;29;20036;-80
2023/01/10 06:54:48;;;;;;;25.27;22.65;;;8.80;99.90;;;;;;4918394;29;20050;-79
2023/01/10 06:57:14;;;;;;;35.03;21.23;;;8.80;99.90;;;;;;4910425;29;20043;-79
2023/01/10 06:59:40;;;;;;;26.83;23.25;;;8.70;99.90;;;;;;4916751;29;20044;-80
2023/01/10 07:02:07;;;;;;;33.28;24.27;;;8.80;99.90;;;;;;4934318;28;20038;-80
2023/01/10 07:04:33;;;;;;;28.20;23.27;;;8.80;99.90;;;;;;4915372;29;20403;-80
2023/01/10 07:06:59;;;;;;;25.38;23.10;;;8.80;99.90;;;;;;4936290;29;20047;-80
2023/01/10 07:09:25;;;;;;;32.97;23.38;;;8.90;99.90;;;;;;4927048;29;20058;-86
2023/01/10 07:11:51;;;;;;;30.45;24.52;;;8.90;99.90;;;;;;4884630;29;20051;-85
2023/01/10 07:14:18;;;;;;;30.35;23.40;;;8.90;99.90;;;;;;4917876;29;20036;-86
2023/01/10 07:16:44;;;;;;;30.60;23.17;;;8.90;99.90;;;;;;4907222;29;20039;-85
2023/01/10 07:19:12;;;;;;;39.08;22.60;;;8.90;99.90;;;;;;4914561;29;20047;-88
2023/01/10 07:21:38;;;;;;;29.08;22.73;;;8.80;99.90;;;;;;4900537;29;20066;-83
2023/01/10 07:24:05;;;;;;;32.42;21.95;;;8.80;99.90;;;;;;4918198;29;20031;-84
2023/01/10 07:26:31;;;;;;;26.40;22.90;;;8.70;99.90;;;;;;4901911;29;20043;-85
2023/01/10 07:28:57;;;;;;;31.13;22.05;;;8.80;99.90;;;;;;4906018;29;20487;-84
2023/01/10 07:31:23;;;;;;;33.08;22.25;;;8.70;99.90;;;;;;4913671;29;20048;-87
2023/01/10 07:33:50;;;;;;;31.13;22.10;;;8.70;99.90;;;;;;4914671;29;20382;-83
2023/01/10 07:36:16;;;;;;;30.38;22.17;;;8.70;99.90;;;;;;4904282;29;20053;-77
2023/01/10 07:38:42;;;;;;;32.95;20.58;;;8.80;99.90;;;;;;4898571;29;20040;-85
2023/01/10 07:41:08;;;;;;;28.15;19.75;;;8.80;99.90;;;;;;4897951;29;20485;-84
2023/01/10 07:43:34;;;;;;;27.73;18.35;;;8.80;99.90;;;;;;4924257;29;20453;-85
2023/01/10 07:46:02;;;;;;;31.77;19.67;;;8.90;99.90;;;;;;4917428;29;20040;-83
2023/01/10 07:48:28;;;;;;;32.85;20.30;;;8.90;99.90;;;;;;4910846;29;20031;-83
2023/01/10 07:50:56;;;;;;;30.88;19.30;;;9.00;99.90;;;;;;4903805;29;20036;-86
2023/01/10 07:53:22;;;;;;;40.00;23.67;;;9.10;99.90;;;;;;4906184;29;20462;-85
2023/01/10 07:55:49;;;;;;;58.25;33.33;;;9.10;99.90;;;;;;4900288;29;20051;-83
2023/01/10 07:58:15;;;;;;;69.75;23.80;;;9.10;99.90;;;;;;4918797;29;20032;-79
2023/01/10 08:00:41;;;;;;;29.35;21.02;;;9.10;99.90;;;;;;4905861;28;20050;-79
2023/01/10 08:03:09;;;;;;;35.08;22.63;;;9.10;99.90;;;;;;4914652;29;20039;-79
2023/01/10 08:05:35;;;;;;;100.40;53.90;;;9.00;99.90;;;;;;4916214;29;20047;-78
2023/01/10 08:08:05;;;;;;;41.92;32.40;;;9.00;99.90;;;;;;4917596;29;20032;-78
2023/01/10 08:10:33;;;;;;;61.43;39.53;;;8.90;99.90;;;;;;4911384;29;20051;-80
2023/01/10 08:12:59;;;;;;;64.63;45.85;;;9.00;99.90;;;;;;4927056;29;20032;-78
2023/01/10 08:15:25;;;;;;;34.72;31.25;;;9.00;99.90;;;;;;4884326;29;20051;-79
2023/01/10 08:17:51;;;;;;;43.78;31.63;;;9.00;99.90;;;;;;4909517;29;20377;-79
2023/01/10 08:20:18;;;;;;;40.15;35.75;;;9.00;99.90;;;;;;4910009;29;20111;-83
2023/01/10 08:22:44;;;;;;;50.67;43.83;;;9.00;99.90;;;;;;4917791;29;20486;-87
2023/01/10 08:25:10;;;;;;;32.95;29.65;;;9.10;99.90;;;;;;4908450;29;20402;-87
2023/01/10 08:27:36;;;;;;;34.53;31.58;;;9.10;99.90;;;;;;4894861;29;20043;-87
2023/01/10 08:30:04;;;;;;;34.03;31.05;;;9.10;99.90;;;;;;4906727;28;20150;-79
2023/01/10 08:32:30;;;;;;;38.85;31.30;;;9.20;99.90;;;;;;4887468;29;20051;-81
2023/01/10 08:34:56;;;;;;;33.60;30.55;;;9.20;99.90;;;;;;4901754;29;20039;-88
2023/01/10 08:37:22;;;;;;;38.33;35.03;;;9.10;99.90;;;;;;4923556;29;20040;-87
2023/01/10 08:39:48;;;;;;;39.13;36.20;;;9.20;99.90;;;;;;4920442;29;20167;-86
2023/01/10 08:42:15;;;;;;;38.38;34.00;;;9.40;99.90;;;;;;4950940;28;20047;-87
2023/01/10 08:44:41;;;;;;;36.08;33.30;;;9.40;99.90;;;;;;4941584;29;20039;-86
2023/01/10 08:47:07;;;;;;;33.97;31.35;;;9.50;99.90;;;;;;4904195;29;20051;-80
2023/01/10 08:49:34;;;;;;;38.20;34.95;;;9.50;99.90;;;;;;4920763;29;20381;-88
2023/01/10 08:52:01;;;;;;;37.25;34.50;;;9.50;99.90;;;;;;4903222;29;20401;-88
2023/01/10 08:54:27;;;;;;;36.10;33.42;;;9.50;99.90;;;;;;4926999;29;20039;-88
2023/01/10 08:56:53;;;;;;;35.60;32.58;;;9.60;99.90;;;;;;4892091;29;20039;-88
2023/01/10 08:59:19;;;;;;;37.08;34.47;;;9.50;99.90;;;;;;4912038;29;20067;-82
2023/01/10 09:01:45;;;;;;;40.30;37.15;;;9.50;99.90;;;;;;4913566;29;20047;-88
2023/01/10 09:04:11;;;;;;;35.63;32.95;;;9.50;99.90;;;;;;4931330;29;20032;-87
2023/01/10 09:06:37;;;;;;;36.80;34.00;;;9.40;99.90;;;;;;4936112;29;20039;-87
2023/01/10 09:09:04;;;;;;;34.70;32.42;;;9.40;99.90;;;;;;4921173;29;20024;-85
2023/01/10 09:11:30;;;;;;;34.10;31.83;;;9.50;99.90;;;;;;4914314;29;20040;-83
2023/01/10 09:13:56;;;;;;;35.08;33.00;;;9.50;99.90;;;;;;4904110;29;20036;-89
2023/01/10 09:16:22;;;;;;;30.38;28.45;;;9.50;99.90;;;;;;4934398;28;20047;-85
2023/01/10 09:18:48;;;;;;;28.80;27.23;;;9.50;99.90;;;;;;4929259;29;20050;-86
2023/01/10 09:21:14;;;;;;;30.27;28.65;;;9.50;99.90;;;;;;4888102;29;20417;-86
2023/01/10 09:23:42;;;;;;;25.40;24.02;;;9.60;99.90;;;;;;4937112;29;20035;-86
2023/01/10 09:26:08;;;;;;;27.30;25.65;;;9.60;99.90;;;;;;4902604;29;20028;-86
2023/01/10 09:28:34;;;;;;;25.95;24.30;;;9.70;99.90;;;;;;4916573;29;20024;-88
2023/01/10 09:31:03;;;;;;;27.75;26.33;;;9.70;99.90;;;;;;4916326;28;20036;-86
2023/01/10 09:33:29;;;;;;;24.75;23.20;;;9.70;99.90;;;;;;4916925;29;20482;-87
2023/01/10 09:35:58;;;;;;;25.77;24.20;;;9.80;99.90;;;;;;4921715;29;20043;-81
2023/01/10 09:38:24;;;;;;;24.83;23.52;;;9.80;99.90;;;;;;4928271;29;20421;-82
2023/01/10 09:41:15;;;;;;;27.10;25.58;;;9.80;99.90;;;;;;4928766;29;20048;-81
2023/01/10 09:43:52;;;;;;;27.98;26.48;;;9.90;99.90;;;;;;4931077;29;20034;-82
2023/01/10 09:46:24;;;;;;;30.33;28.45;;;9.90;99.90;;;;;;4918035;29;20042;-81
2023/01/10 09:49:16;;;;;;;27.52;25.95;;;9.90;99.90;;;;;;4908201;29;20496;-82
2023/01/10 09:51:47;;;;;;;24.83;23.25;;;9.90;99.90;;;;;;4926488;29;20390;-82
2023/01/10 09:54:26;;;;;;;25.13;23.42;;;10.00;99.90;;;;;;4899355;29;20052;-83
2023/01/10 09:56:52;;;;;;;24.75;23.45;;;10.00;99.90;;;;;;4917613;29;20400;-81
2023/01/10 09:59:47;;;;;;;22.38;21.00;;;10.10;99.90;;;;;;4911141;29;20594;-86
2023/01/10 10:02:25;;;;;;;22.48;21.30;;;10.10;99.90;;;;;;4910259;28;20112;-85
2023/01/10 10:05:17;;;;;;;22.05;20.85;;;10.10;99.90;;;;;;4929795;29;20036;-85
2023/01/10 10:07:43;;;;;;;22.23;21.10;;;10.20;99.90;;;;;;4906544;29;20039;-87
2023/01/10 10:10:31;;;;;;;21.30;20.00;;;10.20;99.90;;;;;;4917849;29;20051;-85
2023/01/10 10:13:25;;;;;;;17.50;16.60;;;10.20;99.90;;;;;;4911980;29;20401;-87
2023/01/10 10:16:01;;;;;;;18.92;17.92;;;10.30;99.90;;;;;;4917277;29;20039;-89
2023/01/10 10:19:09;;;;;;;17.80;16.77;;;10.30;99.90;;;;;;4918996;29;20035;-89
2023/01/10 10:21:59;;;;;;;17.70;16.80;;;10.40;99.90;;;;;;4867100;29;20056;-87
2023/01/10 10:24:34;;;;;;;17.05;16.15;;;10.40;99.90;;;;;;4813408;29;20521;-91
2023/01/10 10:27:18;;;;;;;16.45;15.55;;;10.40;99.90;;;;;;4858930;29;20049;-88
2023/01/10 10:30:00;;;;;;;16.48;15.57;;;10.50;99.90;;;;;;4861304;29;20169;-89
2023/01/10 10:32:41;;;;;;;15.85;14.85;;;10.60;99.90;;;;;;4860073;29;20439;-88
2023/01/10 10:35:20;;;;;;;17.05;16.00;;;10.70;99.90;;;;;;4856601;29;20053;-84
2023/01/10 10:37:51;;;;;;;16.88;16.02;;;10.70;99.90;;;;;;4829250;29;20049;-83
2023/01/10 10:40:21;;;;;;;18.92;17.80;;;10.70;99.90;;;;;;4825913;29;20044;-83
2023/01/10 10:42:52;;;;;;;48.55;40.30;;;10.80;99.90;;;;;;4876524;29;20048;-86
2023/01/10 10:45:50;;;;;;;34.35;31.13;;;10.90;99.90;;;;;;4845422;29;20506;-85
2023/01/10 10:48:35;;;;;;;34.95;31.63;;;11.00;99.90;;;;;;4849680;29;20403;-87
2023/01/10 10:51:11;;;;;;;25.90;23.80;;;11.00;99.90;;;;;;4864613;29;20526;-92
2023/01/10 10:53:37;;;;;;;20.58;19.08;;;11.10;99.90;;;;;;4895557;29;20040;-84
2023/01/10 10:56:05;;;;;;;18.33;17.05;;;11.20;99.90;;;;;;4914439;29;20051;-82
2023/01/10 10:58:32;;;;;;;20.45;19.00;;;11.20;99.90;;;;;;4894799;29;20413;-87
2023/01/10 11:00:59;;;;;;;20.95;19.70;;;11.30;99.90;;;;;;4904784;28;20055;-84
2023/01/10 11:03:31;;;;;;;22.20;20.70;;;11.40;99.90;;;;;;4897692;29;20040;-85
2023/01/10 11:05:57;;;;;;;22.85;21.10;;;11.40;99.90;;;;;;4907458;29;20036;-87
2023/01/10 11:08:23;;;;;;;30.60;27.10;;;11.50;99.90;;;;;;4903486;29;20054;-86
2023/01/10 11:10:54;;;;;;;24.45;22.02;;;11.60;99.90;;;;;;4897393;29;20044;-85
2023/01/10 11:13:32;;;;;;;20.75;19.00;;;11.60;99.90;;;;;;4881274;29;20044;-85
2023/01/10 11:15:58;;;;;;;20.95;19.33;;;11.60;99.90;;;;;;4907190;28;20564;-85
2023/01/10 11:18:28;;;;;;;19.42;18.08;;;11.60;99.90;;;;;;4897501;29;20047;-85
2023/01/10 11:21:00;;;;;;;19.60;17.83;;;11.70;99.90;;;;;;4900253;29;20040;-85
2023/01/10 11:23:29;;;;;;;19.25;17.67;;;11.80;99.90;;;;;;4920206;29;20047;-86
2023/01/10 11:25:56;;;;;;;20.73;18.90;;;11.80;99.90;;;;;;4932795;29;20028;-84
2023/01/10 11:28:24;;;;;;;21.10;19.17;;;11.80;99.90;;;;;;4916618;29;20381;-84
2023/01/10 11:30:51;;;;;;;23.80;21.52;;;11.90;99.90;;;;;;4915449;29;20035;-86
2023/01/10 11:33:22;;;;;;;22.88;20.83;;;11.90;99.90;;;;;;4916811;29;20039;-86
2023/01/10 11:35:55;;;;;;;;;;;11.90;99.90;;;;;;4917437;29;20109;-87
2023/01/10 11:38:23;;;;;;;19.38;17.48;;;12.00;99.90;;;;;;4929776;29;19922;-86
2023/01/10 11:40:55;;;;;;;20.33;18.48;;;12.10;99.90;;;;;;4933582;29;20047;-86
2023/01/10 11:43:33;;;;;;;24.65;19.30;;;12.10;99.90;;;;;;4935486;29;20039;-86
2023/01/10 11:46:14;;;;;;;27.45;22.88;;;12.10;99.90;;;;;;4925904;28;20047;-86
2023/01/10 11:48:58;;;;;;;21.67;19.73;;;12.20;99.90;;;;;;4921202;29;20031;-83
2023/01/10 11:51:26;;;;;;;21.58;19.23;;;12.20;99.90;;;;;;4952853;28;20469;-83
2023/01/10 11:54:22;;;;;;;21.60;19.48;;;12.20;99.90;;;;;;4971308;28;20038;-83
2023/01/10 11:57:17;;;;;;;22.95;17.70;;;12.20;99.90;;;;;;4936686;29;20406;-83
2023/01/10 12:00:13;;;;;;;24.70;17.98;;;12.30;99.90;;;;;;4939718;29;20472;-83
2023/01/10 12:02:41;;;;;;;22.27;18.95;;;12.30;99.90;;;;;;4932611;29;20063;-83
2023/01/10 12:05:16;;;;;;;24.50;18.15;;;12.30;99.90;;;;;;4938411;29;20516;-83
2023/01/10 12:08:05;;;;;;;24.52;20.50;;;12.40;99.90;;;;;;4936482;28;20039;-84
2023/01/10 12:10:32;;;;;;;30.45;21.60;;;12.40;99.90;;;;;;4946832;28;20039;-83
2023/01/10 12:12:59;;;;;;;30.30;26.42;;;12.40;99.90;;;;;;4952252;29;20019;-84
2023/01/10 12:15:26;;;;;;;33.80;21.13;;;12.50;99.90;;;;;;4963200;28;20035;-83
2023/01/10 12:17:58;;;;;;;32.60;22.95;;;12.50;99.90;;;;;;4953146;28;20023;-83
2023/01/10 12:20:28;;;;;;;;;;;12.50;99.90;;;;;;4951081;29;20031;-83
2023/01/10 12:22:58;;;;;;;31.42;28.05;;;12.50;99.90;;;;;;4939472;29;20348;-83
2023/01/10 12:25:41;;;;;;;33.20;27.27;;;12.50;99.90;;;;;;4954727;28;20047;-83
2023/01/10 12:28:17;;;;;;;32.72;25.02;;;12.60;99.90;;;;;;4941135;29;20504;-83
2023/01/10 12:30:48;;;;;;;35.78;24.15;;;12.60;99.90;;;;;;4935981;28;20040;-83
2023/01/10 12:33:17;;;;;;;29.88;22.88;;;12.70;99.90;;;;;;4924055;29;20023;-83
2023/01/10 12:35:57;;;;;;;35.88;23.92;;;12.70;99.90;;;;;;4956819;28;20038;-83
2023/01/10 12:44:24;;;;;;;31.00;27.83;;;12.70;99.90;;;;;;4938773;29;20392;-83
2023/01/10 12:47:00;;;;;;;41.90;28.67;;;12.80;99.90;;;;;;4937873;28;20046;-83
2023/01/10 12:49:29;;;;;;;45.67;28.30;;;12.80;99.90;;;;;;4940111;29;20030;-83
2023/01/10 12:51:58;;;;;;;47.97;31.73;;;12.80;99.90;;;;;;4922776;28;20023;-83
2023/01/10 12:54:27;;;;;;;35.22;29.98;;;12.80;99.90;;;;;;4923021;29;20588;-83
2023/01/10 12:56:53;;;;;;;37.10;31.38;;;12.80;99.90;;;;;;4936889;29;20054;-83
2023/01/10 12:59:25;;;;;;;42.72;32.47;;;12.80;99.90;;;;;;4954049;28;20491;-83
2023/01/10 13:01:53;;;;;;;34.08;29.67;;;12.80;99.90;;;;;;4967497;28;20503;-83
2023/01/10 13:04:21;;;;;;;40.83;29.38;;;12.90;99.90;;;;;;4937192;29;20034;-83